sensor_id;sensor_type;location;lat;lon;timestamp;P1;durP1;ratioP1;P2;durP2;ratioP2
74259;SDS011;62630;55.874;37.516;2022-09-13T00:01:44;6.25;;;3.88;;
74259;SDS011;62630;55.874;37.516;2022-09-13T00:04:10;9.52;;;4.18;;
74259;SDS011;62630;55.874;37.516;2022-09-13T00:06:35;6.05;;;4.43;;
74259;SDS011;62630;55.874;37.516;2022-09-13T00:09:02;8.73;;;4.05;;
74259;SDS011;62630;55.874;37.516;2022-09-13T00:11:29;9.25;;;4.45;;
74259;SDS011;62630;55.874;37.516;2022-09-13T00:13:55;8.45;;;4.20;;
74259;SDS011;62630;55.874;37.516;2022-09-13T00:16:23;6.60;;;4.07;;
74259;SDS011;62630;55.874;37.516;2022-09-13T00:18:50;7.55;;;4.45;;
74259;SDS011;62630;55.874;37.516;2022-09-13T00:21:18;7.15;;;4.55;;
74259;SDS011;62630;55.874;37.516;2022-09-13T00:23:45;9.50;;;4.60;;
74259;SDS011;62630;55.874;37.516;2022-09-13T00:26:13;7.65;;;4.35;;
74259;SDS011;62630;55.874;37.516;2022-09-13T00:28:41;6.65;;;4.40;;
74259;SDS011;62630;55.874;37.516;2022-09-13T00:31:12;4.82;;;3.80;;
74259;SDS011;62630;55.874;37.516;2022-09-13T00:33:38;4.97;;;3.95;;
74259;SDS011;62630;55.874;37.516;2022-09-13T00:36:07;9.32;;;4.40;;
74259;SDS011;62630;55.874;37.516;2022-09-13T00:38:35;8.45;;;4.00;;
74259;SDS011;62630;55.874;37.516;2022-09-13T00:41:05;5.85;;;4.30;;
74259;SDS011;62630;55.874;37.516;2022-09-13T00:46:07;7.53;;;4.03;;
74259;SDS011;62630;55.874;37.516;2022-09-13T00:48:33;9.32;;;3.80;;
74259;SDS011;62630;55.874;37.516;2022-09-13T00:51:00;8.00;;;3.80;;
74259;SDS011;62630;55.874;37.516;2022-09-13T00:53:28;6.57;;;4.28;;
74259;SDS011;62630;55.874;37.516;2022-09-13T01:00:52;7.22;;;4.53;;
74259;SDS011;62630;55.874;37.516;2022-09-13T01:03:19;7.82;;;3.88;;
74259;SDS011;62630;55.874;37.516;2022-09-13T01:05:47;10.90;;;4.15;;
74259;SDS011;62630;55.874;37.516;2022-09-13T01:08:17;6.32;;;4.00;;
74259;SDS011;62630;55.874;37.516;2022-09-13T01:10:49;6.10;;;4.65;;
74259;SDS011;62630;55.874;37.516;2022-09-13T01:13:20;5.93;;;3.80;;
74259;SDS011;62630;55.874;37.516;2022-09-13T01:15:48;6.55;;;3.80;;
74259;SDS011;62630;55.874;37.516;2022-09-13T01:18:13;4.05;;;3.13;;
74259;SDS011;62630;55.874;37.516;2022-09-13T01:20:44;6.13;;;3.75;;
74259;SDS011;62630;55.874;37.516;2022-09-13T01:27:06;6.13;;;3.70;;
74259;SDS011;62630;55.874;37.516;2022-09-13T01:35:24;5.97;;;3.92;;
74259;SDS011;62630;55.874;37.516;2022-09-13T01:38:05;6.80;;;3.80;;
74259;SDS011;62630;55.874;37.516;2022-09-13T01:48:53;4.63;;;3.60;;
74259;SDS011;62630;55.874;37.516;2022-09-13T01:51:25;4.70;;;3.58;;
74259;SDS011;62630;55.874;37.516;2022-09-13T01:56:59;7.13;;;3.95;;
74259;SDS011;62630;55.874;37.516;2022-09-13T02:02:16;7.38;;;4.05;;
74259;SDS011;62630;55.874;37.516;2022-09-13T02:04:49;6.50;;;3.50;;
74259;SDS011;62630;55.874;37.516;2022-09-13T02:07:23;5.22;;;3.80;;
74259;SDS011;62630;55.874;37.516;2022-09-13T02:09:58;4.57;;;3.72;;
74259;SDS011;62630;55.874;37.516;2022-09-13T02:12:27;4.50;;;3.42;;
74259;SDS011;62630;55.874;37.516;2022-09-13T02:15:07;5.82;;;3.83;;
74259;SDS011;62630;55.874;37.516;2022-09-13T02:17:47;5.40;;;3.80;;
74259;SDS011;62630;55.874;37.516;2022-09-13T02:20:20;6.35;;;3.88;;
74259;SDS011;62630;55.874;37.516;2022-09-13T02:22:52;5.05;;;3.60;;
74259;SDS011;62630;55.874;37.516;2022-09-13T02:25:21;4.85;;;3.75;;
74259;SDS011;62630;55.874;37.516;2022-09-13T02:27:51;6.43;;;3.65;;
74259;SDS011;62630;55.874;37.516;2022-09-13T02:30:23;7.88;;;3.80;;
74259;SDS011;62630;55.874;37.516;2022-09-13T02:38:45;6.13;;;3.45;;
74259;SDS011;62630;55.874;37.516;2022-09-13T02:43:48;5.82;;;3.47;;
74259;SDS011;62630;55.874;37.516;2022-09-13T02:52:14;5.80;;;3.45;;
74259;SDS011;62630;55.874;37.516;2022-09-13T02:58:08;7.93;;;4.00;;
74259;SDS011;62630;55.874;37.516;2022-09-13T03:00:43;5.97;;;3.60;;
74259;SDS011;62630;55.874;37.516;2022-09-13T03:03:10;4.63;;;3.40;;
74259;SDS011;62630;55.874;37.516;2022-09-13T03:05:38;4.68;;;3.17;;
74259;SDS011;62630;55.874;37.516;2022-09-13T03:08:04;5.72;;;3.63;;
74259;SDS011;62630;55.874;37.516;2022-09-13T03:10:58;4.65;;;3.63;;
74259;SDS011;62630;55.874;37.516;2022-09-13T03:16:18;5.15;;;3.75;;
74259;SDS011;62630;55.874;37.516;2022-09-13T03:22:08;6.40;;;3.72;;
74259;SDS011;62630;55.874;37.516;2022-09-13T03:30:25;6.80;;;4.00;;
74259;SDS011;62630;55.874;37.516;2022-09-13T03:38:08;5.00;;;3.90;;
74259;SDS011;62630;55.874;37.516;2022-09-13T03:40:40;7.55;;;4.05;;
74259;SDS011;62630;55.874;37.516;2022-09-13T03:45:47;6.03;;;4.10;;
74259;SDS011;62630;55.874;37.516;2022-09-13T03:48:16;7.47;;;3.67;;
74259;SDS011;62630;55.874;37.516;2022-09-13T03:50:44;11.15;;;4.07;;
74259;SDS011;62630;55.874;37.516;2022-09-13T03:53:12;5.28;;;4.22;;
74259;SDS011;62630;55.874;37.516;2022-09-13T03:55:43;6.28;;;4.22;;
74259;SDS011;62630;55.874;37.516;2022-09-13T03:58:13;7.95;;;4.38;;
74259;SDS011;62630;55.874;37.516;2022-09-13T04:00:41;10.25;;;4.60;;
74259;SDS011;62630;55.874;37.516;2022-09-13T04:03:07;5.45;;;4.00;;
74259;SDS011;62630;55.874;37.516;2022-09-13T04:05:33;7.68;;;4.35;;
74259;SDS011;62630;55.874;37.516;2022-09-13T04:07:59;7.57;;;4.30;;
74259;SDS011;62630;55.874;37.516;2022-09-13T04:10:26;10.50;;;4.40;;
74259;SDS011;62630;55.874;37.516;2022-09-13T04:12:55;7.25;;;4.10;;
74259;SDS011;62630;55.874;37.516;2022-09-13T04:15:21;7.72;;;4.72;;
74259;SDS011;62630;55.874;37.516;2022-09-13T04:17:46;10.10;;;4.28;;
74259;SDS011;62630;55.874;37.516;2022-09-13T04:20:12;8.77;;;4.40;;
74259;SDS011;62630;55.874;37.516;2022-09-13T04:22:38;6.78;;;4.53;;
74259;SDS011;62630;55.874;37.516;2022-09-13T04:25:03;5.00;;;3.95;;
74259;SDS011;62630;55.874;37.516;2022-09-13T04:27:31;7.95;;;4.85;;
74259;SDS011;62630;55.874;37.516;2022-09-13T04:29:57;6.25;;;4.45;;
74259;SDS011;62630;55.874;37.516;2022-09-13T04:32:22;8.85;;;4.97;;
74259;SDS011;62630;55.874;37.516;2022-09-13T04:37:15;6.85;;;4.90;;
74259;SDS011;62630;55.874;37.516;2022-09-13T04:39:41;7.20;;;4.55;;
74259;SDS011;62630;55.874;37.516;2022-09-13T04:42:06;6.53;;;4.53;;
74259;SDS011;62630;55.874;37.516;2022-09-13T04:44:34;7.15;;;5.03;;
74259;SDS011;62630;55.874;37.516;2022-09-13T04:46:59;13.30;;;5.05;;
74259;SDS011;62630;55.874;37.516;2022-09-13T04:49:25;7.95;;;4.70;;
74259;SDS011;62630;55.874;37.516;2022-09-13T04:51:50;6.50;;;4.50;;
74259;SDS011;62630;55.874;37.516;2022-09-13T04:54:16;7.38;;;4.68;;
74259;SDS011;62630;55.874;37.516;2022-09-13T04:56:42;6.75;;;4.85;;
74259;SDS011;62630;55.874;37.516;2022-09-13T04:59:09;8.98;;;4.75;;
74259;SDS011;62630;55.874;37.516;2022-09-13T05:01:35;10.43;;;5.40;;
74259;SDS011;62630;55.874;37.516;2022-09-13T05:04:02;8.38;;;4.90;;
74259;SDS011;62630;55.874;37.516;2022-09-13T05:06:29;9.70;;;4.65;;
74259;SDS011;62630;55.874;37.516;2022-09-13T05:08:55;8.57;;;5.18;;
74259;SDS011;62630;55.874;37.516;2022-09-13T05:11:22;11.65;;;5.13;;
74259;SDS011;62630;55.874;37.516;2022-09-13T05:13:53;11.70;;;5.05;;
74259;SDS011;62630;55.874;37.516;2022-09-13T05:16:21;11.48;;;5.30;;
74259;SDS011;62630;55.874;37.516;2022-09-13T05:18:49;7.32;;;4.88;;
74259;SDS011;62630;55.874;37.516;2022-09-13T05:21:15;8.27;;;4.95;;
74259;SDS011;62630;55.874;37.516;2022-09-13T05:23:41;11.60;;;5.03;;
74259;SDS011;62630;55.874;37.516;2022-09-13T05:26:07;7.55;;;4.60;;
74259;SDS011;62630;55.874;37.516;2022-09-13T05:28:33;7.90;;;4.57;;
74259;SDS011;62630;55.874;37.516;2022-09-13T05:31:01;7.63;;;4.90;;
74259;SDS011;62630;55.874;37.516;2022-09-13T05:33:30;10.05;;;4.82;;
74259;SDS011;62630;55.874;37.516;2022-09-13T05:35:57;8.35;;;4.88;;
74259;SDS011;62630;55.874;37.516;2022-09-13T05:38:23;11.93;;;5.00;;
74259;SDS011;62630;55.874;37.516;2022-09-13T05:40:58;10.52;;;5.38;;
74259;SDS011;62630;55.874;37.516;2022-09-13T05:43:26;8.45;;;5.50;;
74259;SDS011;62630;55.874;37.516;2022-09-13T05:48:48;20.40;;;5.20;;
74259;SDS011;62630;55.874;37.516;2022-09-13T05:51:15;6.10;;;4.57;;
74259;SDS011;62630;55.874;37.516;2022-09-13T05:53:43;7.80;;;4.70;;
74259;SDS011;62630;55.874;37.516;2022-09-13T05:56:11;12.55;;;4.35;;
74259;SDS011;62630;55.874;37.516;2022-09-13T05:58:43;11.07;;;5.50;;
74259;SDS011;62630;55.874;37.516;2022-09-13T06:01:10;9.82;;;5.10;;
74259;SDS011;62630;55.874;37.516;2022-09-13T06:03:37;9.45;;;5.32;;
74259;SDS011;62630;55.874;37.516;2022-09-13T06:06:03;8.82;;;5.18;;
74259;SDS011;62630;55.874;37.516;2022-09-13T06:08:30;10.57;;;5.38;;
74259;SDS011;62630;55.874;37.516;2022-09-13T06:11:00;11.10;;;5.20;;
74259;SDS011;62630;55.874;37.516;2022-09-13T06:13:27;9.10;;;5.43;;
74259;SDS011;62630;55.874;37.516;2022-09-13T06:15:54;8.73;;;5.07;;
74259;SDS011;62630;55.874;37.516;2022-09-13T06:18:21;9.90;;;4.60;;
74259;SDS011;62630;55.874;37.516;2022-09-13T06:20:47;10.15;;;5.03;;
74259;SDS011;62630;55.874;37.516;2022-09-13T06:23:13;6.82;;;5.03;;
74259;SDS011;62630;55.874;37.516;2022-09-13T06:25:39;9.90;;;4.93;;
74259;SDS011;62630;55.874;37.516;2022-09-13T06:28:08;10.98;;;4.68;;
74259;SDS011;62630;55.874;37.516;2022-09-13T06:30:34;9.15;;;5.45;;
74259;SDS011;62630;55.874;37.516;2022-09-13T06:33:00;8.23;;;4.95;;
74259;SDS011;62630;55.874;37.516;2022-09-13T06:35:26;9.15;;;4.90;;
74259;SDS011;62630;55.874;37.516;2022-09-13T06:37:55;8.02;;;5.13;;
74259;SDS011;62630;55.874;37.516;2022-09-13T06:40:22;7.15;;;4.70;;
74259;SDS011;62630;55.874;37.516;2022-09-13T06:42:48;12.05;;;5.25;;
74259;SDS011;62630;55.874;37.516;2022-09-13T06:45:13;8.77;;;5.28;;
74259;SDS011;62630;55.874;37.516;2022-09-13T06:47:39;8.63;;;4.82;;
74259;SDS011;62630;55.874;37.516;2022-09-13T06:50:04;10.13;;;5.35;;
74259;SDS011;62630;55.874;37.516;2022-09-13T06:52:31;10.25;;;5.45;;
74259;SDS011;62630;55.874;37.516;2022-09-13T06:54:58;15.70;;;5.35;;
74259;SDS011;62630;55.874;37.516;2022-09-13T06:57:23;17.17;;;4.70;;
74259;SDS011;62630;55.874;37.516;2022-09-13T06:59:49;15.77;;;5.95;;
74259;SDS011;62630;55.874;37.516;2022-09-13T07:02:14;6.45;;;4.30;;
74259;SDS011;62630;55.874;37.516;2022-09-13T07:04:40;10.52;;;5.90;;
74259;SDS011;62630;55.874;37.516;2022-09-13T07:07:06;10.48;;;5.68;;
74259;SDS011;62630;55.874;37.516;2022-09-13T07:09:33;12.95;;;5.95;;
74259;SDS011;62630;55.874;37.516;2022-09-13T07:11:58;9.52;;;5.55;;
74259;SDS011;62630;55.874;37.516;2022-09-13T07:14:26;7.80;;;4.63;;
74259;SDS011;62630;55.874;37.516;2022-09-13T07:16:53;9.18;;;4.28;;
74259;SDS011;62630;55.874;37.516;2022-09-13T07:19:22;10.50;;;4.05;;
74259;SDS011;62630;55.874;37.516;2022-09-13T07:21:50;9.63;;;4.03;;
74259;SDS011;62630;55.874;37.516;2022-09-13T07:24:17;10.30;;;4.28;;
74259;SDS011;62630;55.874;37.516;2022-09-13T07:26:43;10.27;;;3.35;;
74259;SDS011;62630;55.874;37.516;2022-09-13T07:29:12;9.25;;;3.95;;
74259;SDS011;62630;55.874;37.516;2022-09-13T07:31:41;15.18;;;4.38;;
74259;SDS011;62630;55.874;37.516;2022-09-13T07:34:13;6.85;;;3.72;;
74259;SDS011;62630;55.874;37.516;2022-09-13T07:36:43;6.38;;;3.97;;
74259;SDS011;62630;55.874;37.516;2022-09-13T07:39:12;9.77;;;4.07;;
74259;SDS011;62630;55.874;37.516;2022-09-13T07:41:38;7.63;;;3.70;;
74259;SDS011;62630;55.874;37.516;2022-09-13T07:44:04;7.60;;;3.47;;
74259;SDS011;62630;55.874;37.516;2022-09-13T07:46:32;6.05;;;3.20;;
74259;SDS011;62630;55.874;37.516;2022-09-13T07:49:03;10.27;;;4.47;;
74259;SDS011;62630;55.874;37.516;2022-09-13T07:51:31;8.50;;;3.83;;
74259;SDS011;62630;55.874;37.516;2022-09-13T07:53:59;7.20;;;3.45;;
74259;SDS011;62630;55.874;37.516;2022-09-13T07:56:30;4.65;;;3.38;;
74259;SDS011;62630;55.874;37.516;2022-09-13T07:59:03;5.20;;;3.63;;
74259;SDS011;62630;55.874;37.516;2022-09-13T08:01:34;9.73;;;3.20;;
74259;SDS011;62630;55.874;37.516;2022-09-13T08:04:03;8.43;;;3.20;;
74259;SDS011;62630;55.874;37.516;2022-09-13T08:06:32;6.65;;;3.15;;
74259;SDS011;62630;55.874;37.516;2022-09-13T08:08:58;6.50;;;3.53;;
74259;SDS011;62630;55.874;37.516;2022-09-13T08:11:25;6.22;;;3.65;;
74259;SDS011;62630;55.874;37.516;2022-09-13T08:13:51;5.50;;;2.75;;
74259;SDS011;62630;55.874;37.516;2022-09-13T08:16:21;10.50;;;2.97;;
74259;SDS011;62630;55.874;37.516;2022-09-13T08:18:48;3.45;;;2.72;;
74259;SDS011;62630;55.874;37.516;2022-09-13T08:21:15;5.38;;;2.78;;
74259;SDS011;62630;55.874;37.516;2022-09-13T08:23:41;8.23;;;2.38;;
74259;SDS011;62630;55.874;37.516;2022-09-13T08:26:07;11.80;;;2.42;;
74259;SDS011;62630;55.874;37.516;2022-09-13T08:28:35;2.58;;;1.80;;
74259;SDS011;62630;55.874;37.516;2022-09-13T08:31:06;4.90;;;2.53;;
74259;SDS011;62630;55.874;37.516;2022-09-13T08:33:33;5.10;;;2.20;;
74259;SDS011;62630;55.874;37.516;2022-09-13T08:35:59;3.95;;;1.75;;
74259;SDS011;62630;55.874;37.516;2022-09-13T08:38:26;2.55;;;1.67;;
74259;SDS011;62630;55.874;37.516;2022-09-13T08:40:54;4.47;;;1.85;;
74259;SDS011;62630;55.874;37.516;2022-09-13T08:48:38;4.45;;;2.08;;
74259;SDS011;62630;55.874;37.516;2022-09-13T08:51:10;3.35;;;1.95;;
74259;SDS011;62630;55.874;37.516;2022-09-13T08:53:54;5.97;;;3.08;;
74259;SDS011;62630;55.874;37.516;2022-09-13T08:56:22;6.78;;;2.45;;
74259;SDS011;62630;55.874;37.516;2022-09-13T09:04:22;6.63;;;2.42;;
74259;SDS011;62630;55.874;37.516;2022-09-13T09:12:53;4.65;;;1.98;;
74259;SDS011;62630;55.874;37.516;2022-09-13T09:15:39;3.00;;;2.00;;
74259;SDS011;62630;55.874;37.516;2022-09-13T09:18:19;4.07;;;2.10;;
74259;SDS011;62630;55.874;37.516;2022-09-13T09:20:49;2.75;;;2.08;;
74259;SDS011;62630;55.874;37.516;2022-09-13T09:23:24;5.18;;;2.28;;
74259;SDS011;62630;55.874;37.516;2022-09-13T09:25:56;6.22;;;1.90;;
74259;SDS011;62630;55.874;37.516;2022-09-13T09:28:29;5.25;;;2.40;;
74259;SDS011;62630;55.874;37.516;2022-09-13T09:31:04;4.45;;;2.30;;
74259;SDS011;62630;55.874;37.516;2022-09-13T09:36:13;7.05;;;2.35;;
74259;SDS011;62630;55.874;37.516;2022-09-13T09:38:52;6.22;;;2.10;;
74259;SDS011;62630;55.874;37.516;2022-09-13T09:41:27;7.07;;;2.63;;
74259;SDS011;62630;55.874;37.516;2022-09-13T09:46:27;9.35;;;2.00;;
74259;SDS011;62630;55.874;37.516;2022-09-13T09:49:01;5.10;;;1.60;;
74259;SDS011;62630;55.874;37.516;2022-09-13T09:51:58;6.78;;;1.85;;
74259;SDS011;62630;55.874;37.516;2022-09-13T09:54:25;7.07;;;2.20;;
74259;SDS011;62630;55.874;37.516;2022-09-13T09:56:54;7.40;;;1.98;;
74259;SDS011;62630;55.874;37.516;2022-09-13T09:59:30;9.73;;;1.98;;
74259;SDS011;62630;55.874;37.516;2022-09-13T10:02:01;8.52;;;2.30;;
74259;SDS011;62630;55.874;37.516;2022-09-13T10:04:38;2.85;;;1.75;;
74259;SDS011;62630;55.874;37.516;2022-09-13T10:07:08;4.90;;;1.23;;
74259;SDS011;62630;55.874;37.516;2022-09-13T10:09:35;8.15;;;2.08;;
74259;SDS011;62630;55.874;37.516;2022-09-13T10:12:03;5.15;;;1.73;;
74259;SDS011;62630;55.874;37.516;2022-09-13T10:17:27;3.78;;;1.70;;
74259;SDS011;62630;55.874;37.516;2022-09-13T10:22:44;3.03;;;1.67;;
74259;SDS011;62630;55.874;37.516;2022-09-13T10:25:29;6.30;;;1.58;;
74259;SDS011;62630;55.874;37.516;2022-09-13T10:27:56;3.38;;;1.45;;
74259;SDS011;62630;55.874;37.516;2022-09-13T10:33:41;1.95;;;1.58;;
74259;SDS011;62630;55.874;37.516;2022-09-13T10:36:23;2.75;;;1.70;;
74259;SDS011;62630;55.874;37.516;2022-09-13T10:38:59;3.92;;;1.58;;
74259;SDS011;62630;55.874;37.516;2022-09-13T10:41:31;3.03;;;1.65;;
74259;SDS011;62630;55.874;37.516;2022-09-13T10:44:00;2.42;;;1.80;;
74259;SDS011;62630;55.874;37.516;2022-09-13T10:46:31;4.45;;;1.70;;
74259;SDS011;62630;55.874;37.516;2022-09-13T10:49:00;4.28;;;1.70;;
74259;SDS011;62630;55.874;37.516;2022-09-13T10:56:35;4.32;;;1.90;;
74259;SDS011;62630;55.874;37.516;2022-09-13T10:59:20;3.40;;;1.42;;
74259;SDS011;62630;55.874;37.516;2022-09-13T11:12:38;4.20;;;2.00;;
74259;SDS011;62630;55.874;37.516;2022-09-13T11:16:09;3.03;;;1.70;;
74259;SDS011;62630;55.874;37.516;2022-09-13T11:18:21;3.70;;;1.90;;
74259;SDS011;62630;55.874;37.516;2022-09-13T11:23:51;2.17;;;1.50;;
74259;SDS011;62630;55.874;37.516;2022-09-13T11:26:34;3.90;;;1.60;;
74259;SDS011;62630;55.874;37.516;2022-09-13T11:48:44;3.63;;;1.90;;
74259;SDS011;62630;55.874;37.516;2022-09-13T11:53:55;3.53;;;2.05;;
74259;SDS011;62630;55.874;37.516;2022-09-13T12:01:56;2.25;;;1.42;;
74259;SDS011;62630;55.874;37.516;2022-09-13T12:07:11;6.72;;;1.48;;
74259;SDS011;62630;55.874;37.516;2022-09-13T12:09:53;3.55;;;1.60;;
74259;SDS011;62630;55.874;37.516;2022-09-13T12:12:23;4.07;;;2.10;;
74259;SDS011;62630;55.874;37.516;2022-09-13T12:14:59;3.15;;;1.90;;
74259;SDS011;62630;55.874;37.516;2022-09-13T12:17:37;4.07;;;1.70;;
74259;SDS011;62630;55.874;37.516;2022-09-13T12:24:03;2.53;;;1.38;;
74259;SDS011;62630;55.874;37.516;2022-09-13T12:29:50;6.07;;;1.92;;
74259;SDS011;62630;55.874;37.516;2022-09-13T12:32:19;3.42;;;1.38;;
74259;SDS011;62630;55.874;37.516;2022-09-13T12:34:47;3.58;;;1.77;;
74259;SDS011;62630;55.874;37.516;2022-09-13T12:43:51;8.63;;;1.40;;
74259;SDS011;62630;55.874;37.516;2022-09-13T13:01:59;1.48;;;1.13;;
74259;SDS011;62630;55.874;37.516;2022-09-13T13:04:29;10.20;;;1.35;;
74259;SDS011;62630;55.874;37.516;2022-09-13T13:07:04;5.25;;;1.10;;
74259;SDS011;62630;55.874;37.516;2022-09-13T13:09:35;2.60;;;1.50;;
74259;SDS011;62630;55.874;37.516;2022-09-13T13:14:59;5.20;;;1.13;;
74259;SDS011;62630;55.874;37.516;2022-09-13T13:29:04;5.45;;;1.67;;
74259;SDS011;62630;55.874;37.516;2022-09-13T13:31:45;3.33;;;1.30;;
74259;SDS011;62630;55.874;37.516;2022-09-13T13:46:50;4.30;;;1.60;;
74259;SDS011;62630;55.874;37.516;2022-09-13T13:58:07;9.68;;;1.50;;
74259;SDS011;62630;55.874;37.516;2022-09-13T14:00:55;6.55;;;1.55;;
74259;SDS011;62630;55.874;37.516;2022-09-13T14:03:33;4.78;;;1.58;;
74259;SDS011;62630;55.874;37.516;2022-09-13T14:06:11;11.52;;;1.60;;
74259;SDS011;62630;55.874;37.516;2022-09-13T14:14:25;4.55;;;1.23;;
74259;SDS011;62630;55.874;37.516;2022-09-13T14:20:14;4.32;;;1.20;;
74259;SDS011;62630;55.874;37.516;2022-09-13T14:22:41;4.40;;;1.98;;
74259;SDS011;62630;55.874;37.516;2022-09-13T14:27:48;7.22;;;1.92;;
74259;SDS011;62630;55.874;37.516;2022-09-13T14:30:21;5.35;;;2.28;;
74259;SDS011;62630;55.874;37.516;2022-09-13T14:32:53;2.17;;;1.30;;
74259;SDS011;62630;55.874;37.516;2022-09-13T14:40:21;9.35;;;1.70;;
74259;SDS011;62630;55.874;37.516;2022-09-13T14:42:50;3.40;;;1.80;;
74259;SDS011;62630;55.874;37.516;2022-09-13T14:45:27;5.97;;;1.80;;
74259;SDS011;62630;55.874;37.516;2022-09-13T14:48:06;2.58;;;1.70;;
74259;SDS011;62630;55.874;37.516;2022-09-13T14:50:34;4.97;;;1.58;;
74259;SDS011;62630;55.874;37.516;2022-09-13T14:53:13;3.75;;;1.50;;
74259;SDS011;62630;55.874;37.516;2022-09-13T14:55:43;3.00;;;1.50;;
74259;SDS011;62630;55.874;37.516;2022-09-13T14:58:19;6.03;;;1.83;;
74259;SDS011;62630;55.874;37.516;2022-09-13T15:01:07;2.22;;;1.63;;
74259;SDS011;62630;55.874;37.516;2022-09-13T15:03:59;7.70;;;2.03;;
74259;SDS011;62630;55.874;37.516;2022-09-13T15:06:28;2.10;;;1.80;;
74259;SDS011;62630;55.874;37.516;2022-09-13T15:09:12;4.50;;;1.88;;
74259;SDS011;62630;55.874;37.516;2022-09-13T15:17:05;8.57;;;1.80;;
74259;SDS011;62630;55.874;37.516;2022-09-13T15:19:36;2.60;;;1.80;;
74259;SDS011;62630;55.874;37.516;2022-09-13T15:24:45;4.95;;;2.40;;
74259;SDS011;62630;55.874;37.516;2022-09-13T15:27:30;4.13;;;2.65;;
74259;SDS011;62630;55.874;37.516;2022-09-13T15:30:25;3.38;;;2.30;;
74259;SDS011;62630;55.874;37.516;2022-09-13T15:35:41;10.85;;;2.40;;
74259;SDS011;62630;55.874;37.516;2022-09-13T15:38:27;7.22;;;2.83;;
74259;SDS011;62630;55.874;37.516;2022-09-13T15:41:11;5.53;;;2.53;;
74259;SDS011;62630;55.874;37.516;2022-09-13T15:43:42;6.20;;;2.28;;
74259;SDS011;62630;55.874;37.516;2022-09-13T15:46:12;11.38;;;2.70;;
74259;SDS011;62630;55.874;37.516;2022-09-13T15:48:43;4.85;;;2.20;;
74259;SDS011;62630;55.874;37.516;2022-09-13T15:51:36;3.47;;;1.92;;
74259;SDS011;62630;55.874;37.516;2022-09-13T15:54:04;5.70;;;2.38;;
74259;SDS011;62630;55.874;37.516;2022-09-13T15:56:36;6.15;;;2.35;;
74259;SDS011;62630;55.874;37.516;2022-09-13T15:59:04;4.60;;;1.95;;
74259;SDS011;62630;55.874;37.516;2022-09-13T16:01:32;4.63;;;2.30;;
74259;SDS011;62630;55.874;37.516;2022-09-13T16:03:57;4.63;;;2.03;;
74259;SDS011;62630;55.874;37.516;2022-09-13T16:06:23;8.93;;;2.25;;
74259;SDS011;62630;55.874;37.516;2022-09-13T16:08:49;4.40;;;1.73;;
74259;SDS011;62630;55.874;37.516;2022-09-13T16:11:15;4.72;;;1.63;;
74259;SDS011;62630;55.874;37.516;2022-09-13T16:13:43;3.20;;;1.80;;
74259;SDS011;62630;55.874;37.516;2022-09-13T16:16:12;3.13;;;1.70;;
74259;SDS011;62630;55.874;37.516;2022-09-13T16:18:39;5.82;;;1.90;;
74259;SDS011;62630;55.874;37.516;2022-09-13T16:21:06;2.38;;;1.73;;
74259;SDS011;62630;55.874;37.516;2022-09-13T16:23:33;2.72;;;1.88;;
74259;SDS011;62630;55.874;37.516;2022-09-13T16:26:00;5.45;;;1.70;;
74259;SDS011;62630;55.874;37.516;2022-09-13T16:28:28;6.80;;;2.40;;
74259;SDS011;62630;55.874;37.516;2022-09-13T16:30:55;4.22;;;2.30;;
74259;SDS011;62630;55.874;37.516;2022-09-13T16:33:23;4.43;;;1.92;;
74259;SDS011;62630;55.874;37.516;2022-09-13T16:35:48;3.13;;;1.70;;
74259;SDS011;62630;55.874;37.516;2022-09-13T16:38:15;5.35;;;1.95;;
74259;SDS011;62630;55.874;37.516;2022-09-13T16:40:42;5.38;;;2.25;;
74259;SDS011;62630;55.874;37.516;2022-09-13T16:43:09;4.18;;;2.08;;
74259;SDS011;62630;55.874;37.516;2022-09-13T16:45:39;4.30;;;2.20;;
74259;SDS011;62630;55.874;37.516;2022-09-13T16:48:06;4.45;;;1.98;;
74259;SDS011;62630;55.874;37.516;2022-09-13T16:50:33;6.55;;;2.17;;
74259;SDS011;62630;55.874;37.516;2022-09-13T16:53:00;3.00;;;2.22;;
74259;SDS011;62630;55.874;37.516;2022-09-13T16:55:28;2.83;;;1.90;;
74259;SDS011;62630;55.874;37.516;2022-09-13T16:57:54;6.85;;;2.15;;
74259;SDS011;62630;55.874;37.516;2022-09-13T17:00:20;5.18;;;2.03;;
74259;SDS011;62630;55.874;37.516;2022-09-13T17:02:52;9.55;;;2.65;;
74259;SDS011;62630;55.874;37.516;2022-09-13T17:05:21;5.97;;;2.10;;
74259;SDS011;62630;55.874;37.516;2022-09-13T17:07:49;5.15;;;2.47;;
74259;SDS011;62630;55.874;37.516;2022-09-13T17:10:19;3.47;;;2.25;;
74259;SDS011;62630;55.874;37.516;2022-09-13T17:12:45;3.05;;;2.10;;
74259;SDS011;62630;55.874;37.516;2022-09-13T17:15:12;4.18;;;2.20;;
74259;SDS011;62630;55.874;37.516;2022-09-13T17:17:39;5.35;;;2.10;;
74259;SDS011;62630;55.874;37.516;2022-09-13T17:20:06;2.92;;;2.03;;
74259;SDS011;62630;55.874;37.516;2022-09-13T17:22:34;3.47;;;2.22;;
74259;SDS011;62630;55.874;37.516;2022-09-13T17:25:02;5.38;;;2.00;;
74259;SDS011;62630;55.874;37.516;2022-09-13T17:27:28;4.45;;;1.70;;
74259;SDS011;62630;55.874;37.516;2022-09-13T17:29:57;3.67;;;1.70;;
74259;SDS011;62630;55.874;37.516;2022-09-13T17:32:26;4.88;;;2.10;;
74259;SDS011;62630;55.874;37.516;2022-09-13T17:34:52;5.53;;;1.92;;
74259;SDS011;62630;55.874;37.516;2022-09-13T17:37:18;6.22;;;2.30;;
74259;SDS011;62630;55.874;37.516;2022-09-13T17:39:44;4.88;;;2.13;;
74259;SDS011;62630;55.874;37.516;2022-09-13T17:42:10;3.13;;;1.70;;
74259;SDS011;62630;55.874;37.516;2022-09-13T17:44:36;3.50;;;2.30;;
74259;SDS011;62630;55.874;37.516;2022-09-13T17:47:02;4.00;;;1.95;;
74259;SDS011;62630;55.874;37.516;2022-09-13T17:49:31;5.00;;;1.95;;
74259;SDS011;62630;55.874;37.516;2022-09-13T17:52:00;4.28;;;2.10;;
74259;SDS011;62630;55.874;37.516;2022-09-13T17:54:27;2.72;;;1.80;;
74259;SDS011;62630;55.874;37.516;2022-09-13T17:56:53;3.60;;;2.30;;
74259;SDS011;62630;55.874;37.516;2022-09-13T17:59:20;3.97;;;2.10;;
74259;SDS011;62630;55.874;37.516;2022-09-13T18:01:47;3.45;;;2.05;;
74259;SDS011;62630;55.874;37.516;2022-09-13T18:04:15;2.85;;;1.73;;
74259;SDS011;62630;55.874;37.516;2022-09-13T18:06:42;2.78;;;1.95;;
74259;SDS011;62630;55.874;37.516;2022-09-13T18:09:10;8.38;;;2.58;;
74259;SDS011;62630;55.874;37.516;2022-09-13T18:11:38;5.43;;;2.40;;
74259;SDS011;62630;55.874;37.516;2022-09-13T18:14:04;6.90;;;2.30;;
74259;SDS011;62630;55.874;37.516;2022-09-13T18:16:31;2.45;;;1.85;;
74259;SDS011;62630;55.874;37.516;2022-09-13T18:18:58;3.30;;;2.00;;
74259;SDS011;62630;55.874;37.516;2022-09-13T18:21:24;4.88;;;1.95;;
74259;SDS011;62630;55.874;37.516;2022-09-13T18:23:52;2.80;;;2.20;;
74259;SDS011;62630;55.874;37.516;2022-09-13T18:26:20;4.15;;;1.95;;
74259;SDS011;62630;55.874;37.516;2022-09-13T18:28:55;4.25;;;2.05;;
74259;SDS011;62630;55.874;37.516;2022-09-13T18:31:30;5.13;;;2.08;;
74259;SDS011;62630;55.874;37.516;2022-09-13T18:33:59;3.67;;;2.30;;
74259;SDS011;62630;55.874;37.516;2022-09-13T18:36:28;2.40;;;1.90;;
74259;SDS011;62630;55.874;37.516;2022-09-13T18:38:55;3.10;;;1.90;;
74259;SDS011;62630;55.874;37.516;2022-09-13T18:41:31;5.25;;;2.22;;
74259;SDS011;62630;55.874;37.516;2022-09-13T18:43:58;4.50;;;1.98;;
74259;SDS011;62630;55.874;37.516;2022-09-13T18:46:25;4.20;;;1.80;;
74259;SDS011;62630;55.874;37.516;2022-09-13T18:48:55;3.08;;;2.20;;
74259;SDS011;62630;55.874;37.516;2022-09-13T18:51:31;5.15;;;2.70;;
74259;SDS011;62630;55.874;37.516;2022-09-13T18:54:02;3.30;;;2.25;;
74259;SDS011;62630;55.874;37.516;2022-09-13T18:56:30;5.03;;;2.20;;